EW9130 Weather Reports


Display with metric or nautical units.
time (UTC)temp
F
wind
direction
speed
MPH
gust
MPH
rain 1hr
in
rain 24hr
in
rain mn
in
humidity
%
barometer
mb
20191017111611 37 228 0.0 0.0 0.00 0.00 0.00 86 1001.7
20191017110048 37 228 0.0 0.0 0.00 0.00 0.00 86 1001.9
20191017104607 37 228 0.0 0.0 0.00 0.00 0.00 86 1002.0
20191017103021 37 228 0.0 0.0 0.00 0.00 0.00 85 1002.2
20191017101525 37 228 0.0 0.0 0.00 0.00 0.00 85 1002.4
20191017100021 37 228 0.0 0.0 0.00 0.00 0.00 85 1002.8
20191017094602 37 228 0.0 0.0 0.00 0.00 0.00 85 1003.1
20191017093023 37 228 0.0 0.0 0.00 0.00 0.00 85 1003.3
20191017091512 36 228 0.0 0.0 0.00 0.00 0.00 85 1003.4
20191017090022 36 228 0.0 0.0 0.00 0.00 0.00 87 1003.5
20191017084510 35 228 0.0 0.0 0.00 0.00 0.00 86 1003.8
20191017083006 35 228 0.0 0.0 0.00 0.00 0.00 85 1004.1
20191017081803 35 228 0.0 0.0 0.00 0.00 0.00 85 1004.0
20191017080150 36 228 0.0 0.0 0.00 0.00 0.00 85 1004.2
20191017074727 36 228 0.0 0.0 0.00 0.00 0.00 84 1004.3
20191017073128 37 228 0.0 0.0 0.00 0.00 0.00 85 1004.3
20191017071721 37 228 0.0 0.0 0.00 0.00 0.00 84 1004.5
20191017070150 37 228 0.0 0.0 0.00 0.00 0.00 85 1004.6
20191017064630 38 228 0.0 0.0 0.00 0.00 0.00 84 1004.8
20191017063119 38 228 0.0 0.0 0.00 0.00 0.00 84 1005.0
20191017061614 39 228 0.0 0.0 0.00 0.00 0.00 83 1005.4
20191017060131 39 228 0.0 0.0 0.00 0.00 0.00 81 1005.7
20191017054645 40 228 0.0 0.0 0.00 0.00 0.00 81 1005.8
20191017053138 40 228 0.0 0.0 0.00 0.00 0.00 80 1005.9
20191017051633 41 228 0.0 0.0 0.00 0.00 0.00 78 1005.9
20191017050049 42 228 0.0 0.0 0.00 0.00 0.00 77 1006.0
20191017044634 42 228 0.0 0.0 0.00 0.00 0.00 76 1006.1
20191017043110 43 228 0.0 0.0 0.00 0.00 0.00 74 1006.2
20191017041626 44 228 0.0 0.0 0.00 0.00 0.00 73 1006.4
20191017040104 45 228 0.0 0.0 0.00 0.00 0.00 72 1006.6
20191017034538 46 228 0.0 0.0 0.00 0.00 0.00 69 1006.7
20191017033113 47 228 0.0 0.0 0.00 0.00 0.00 68 1006.8
20191017031556 48 228 0.0 3.0 0.00 0.00 0.00 66 1006.8
20191017030105 49 220 0.0 0.0 0.00 0.00 0.00 65 1006.9
20191017024526 50 219 0.0 0.0 0.00 0.00 0.00 64 1007.1
20191017023024 51 212 0.0 0.0 0.00 0.00 0.00 60 1007.3
20191017021532 52 212 0.0 0.0 0.00 0.00 0.00 57 1007.6
20191017020117 52 211 0.0 0.0 0.00 0.00 0.00 57 1007.5
20191017014538 53 198 0.0 0.0 0.00 0.00 0.00 59 1007.4
20191017013030 54 173 0.0 0.0 0.00 0.00 0.00 56 1007.4
20191017011522 56 171 0.0 0.0 0.00 0.00 0.00 54 1007.5
20191017010028 58 171 0.0 0.0 0.00 0.00 0.00 51 1007.7
20191017004522 60 169 0.0 1.0 0.00 0.00 0.00 47 1007.7
20191017003030 63 119 1.0 3.0 0.00 0.00 0.00 41 1007.9
20191017001514 66 119 0.0 2.0 0.00 0.00 0.00 38 1008.1
20191017000032 69 119 2.0 4.0 0.00 0.00 0.00 36 1008.3
20191016234509 71 119 0.0 0.0 0.00 0.00 0.00 31 1008.2
20191016233007 73 119 0.0 0.0 0.00 0.00 0.00 28 1008.4
20191016231517 73 119 0.0 3.0 0.00 0.00 0.00 28 1008.6
20191016230002 73 119 0.0 0.0 0.00 0.00 0.00 28 1008.8
20191016224722 73 150 0.0 2.0 0.00 0.00 0.00 29 1009.0
20191016223207 73 148 1.0 4.0 0.00 0.00 0.00 25 1009.2
20191016221650 73 75 1.0 6.0 0.00 0.00 0.00 29 1009.4
20191016220128 73 69 0.0 3.0 0.00 0.00 0.00 25 1009.6
20191016214654 73 157 2.0 5.0 0.00 0.00 0.00 23 1009.8
20191016213150 73 65 1.0 4.0 0.00 0.00 0.00 26 1010.0
20191016211554 73 22 2.0 5.0 0.00 0.00 0.00 25 1010.2
20191016210131 73 302 2.0 5.0 0.00 0.00 0.00 27 1010.6
20191016204623 72 217 3.0 6.0 0.00 0.00 0.00 24 1010.8
20191016203104 72 216 3.0 7.0 0.00 0.00 0.00 23 1011.1
20191016201604 72 205 4.0 8.0 0.00 0.00 0.00 23 1011.5
20191016200155 71 280 3.0 9.0 0.00 0.00 0.00 26 1011.8
20191016194614 70 298 4.0 9.0 0.00 0.00 0.00 27 1012.0
20191016193103 70 236 3.0 9.0 0.00 0.00 0.00 28 1012.3
20191016191531 69 257 3.0 9.0 0.00 0.00 0.00 31 1012.6
20191016190046 68 237 4.0 10.0 0.00 0.00 0.00 30 1012.9
20191016184524 68 226 3.0 11.0 0.00 0.00 0.00 33 1013.3
20191016183033 66 222 5.0 10.0 0.00 0.00 0.00 35 1013.5
20191016181513 65 211 7.0 10.0 0.00 0.00 0.00 37 1013.8
20191016180010 63 227 7.0 11.0 0.00 0.00 0.00 40 1014.1
20191016174517 61 196 3.0 9.0 0.00 0.00 0.00 45 1014.4
20191016173210 59 210 5.0 8.0 0.00 0.00 0.00 46 1014.6
20191016171654 58 196 4.0 8.0 0.00 0.00 0.00 49 1014.7
20191016170200 56 209 1.0 6.0 0.00 0.00 0.00 52 1015.2
20191016164616 55 217 3.0 7.0 0.00 0.00 0.00 57 1015.1
20191016163138 53 204 3.0 6.0 0.00 0.00 0.00 61 1015.3
20191016161723 52 248 2.0 5.0 0.00 0.00 0.00 62 1015.6
20191016160036 50 272 0.0 0.0 0.00 0.00 0.00 68 1015.7
20191016154618 49 272 0.0 0.0 0.00 0.00 0.00 72 1015.8
20191016153050 47 271 0.0 0.0 0.00 0.00 0.00 80 1015.7
20191016151542 46 271 0.0 2.0 0.00 0.00 0.00 81 1015.5
20191016150022 44 267 0.0 0.0 0.00 0.00 0.00 81 1015.5
20191016144521 43 266 1.0 4.0 0.00 0.00 0.00 82 1015.2
20191016143015 41 327 0.0 0.0 0.00 0.00 0.00 85 1015.3
20191016141511 40 327 0.0 3.0 0.00 0.00 0.00 86 1015.2
20191016140005 40 327 0.0 0.0 0.00 0.00 0.00 86 1015.0
20191016134501 39 345 1.0 4.0 0.00 0.00 0.00 86 1014.8
20191016133206 39 275 0.0 0.0 0.00 0.00 0.00 88 1014.7
20191016131703 39 337 0.0 0.0 0.00 0.00 0.00 88 1014.9
20191016130210 39 338 0.0 0.0 0.00 0.00 0.00 88 1014.9
20191016124737 39 338 0.0 0.0 0.00 0.00 0.00 88 1015.0
20191016123340 39 338 0.0 0.0 0.00 0.00 0.00 87 1015.0
20191016121657 39 338 0.0 0.0 0.00 0.00 0.00 87 1014.9
20191016120305 39 338 0.0 0.0 0.00 0.00 0.00 87 1014.8
20191016114717 38 338 0.0 0.0 0.00 0.00 0.00 87 1015.0
20191016113130 38 344 0.0 0.0 0.00 0.00 0.00 87 1015.3